Time;durP1;ratioP1;P1;durP2;ratioP2;P2;SDS_P1;SDS_P2;PMS_P1;PMS_P2;Temp;Humidity;BMP_temperature;BMP_pressure;BME280_temperature;BME280_humidity;BME280_pressure;Samples;Min_cycle;Max_cycle;Signal;HPM_P1;HPM_P2
2023/04/22 00:00:57;;;;;;;2.50;2.30;;;18.30;58.50;19.00;100047.00;;;;5035101;28;20177;-54
2023/04/22 00:03:23;;;;;;;2.20;2.10;;;18.30;58.50;19.00;100043.00;;;;5025531;28;20182;-55
2023/04/22 00:05:49;;;;;;;2.63;2.43;;;18.20;58.40;19.00;100048.00;;;;5034478;28;20187;-55
2023/04/22 00:08:15;;;;;;;2.50;2.20;;;18.20;58.40;19.00;100043.00;;;;5033336;28;20239;-54
2023/04/22 00:10:40;;;;;;;2.43;2.23;;;18.20;58.40;18.90;100027.00;;;;5035575;28;20178;-57
2023/04/22 00:13:06;;;;;;;2.60;2.40;;;18.20;58.40;18.90;100038.00;;;;5045959;28;20269;-55
2023/04/22 00:15:32;;;;;;;2.73;2.53;;;18.20;58.40;18.90;100037.00;;;;5030536;28;20688;-54
2023/04/22 00:17:58;;;;;;;2.63;2.20;;;18.20;58.40;18.90;100035.00;;;;5030710;28;20268;-55
2023/04/22 00:20:24;;;;;;;2.27;2.13;;;18.20;58.40;18.90;100035.00;;;;5031898;28;20621;-55
2023/04/22 00:22:50;;;;;;;2.33;2.13;;;18.10;58.30;18.90;100035.00;;;;5030687;28;20179;-54
2023/04/22 00:25:16;;;;;;;2.40;2.20;;;18.20;58.50;18.90;100035.00;;;;5031685;28;20633;-55
2023/04/22 00:27:41;;;;;;;2.63;2.43;;;18.10;58.40;18.90;100028.00;;;;5031435;28;20214;-54
2023/04/22 00:30:08;;;;;;;2.50;2.30;;;18.20;58.60;18.80;99959.00;;;;5031623;28;20530;-54
2023/04/22 00:32:34;;;;;;;2.33;2.20;;;18.10;58.50;18.80;100031.00;;;;5031455;28;20186;-54
2023/04/22 00:35:00;;;;;;;2.30;2.10;;;18.10;58.50;18.80;100034.00;;;;5031826;28;20179;-54
2023/04/22 00:37:27;;;;;;;2.20;2.10;;;18.10;58.50;18.80;100036.00;;;;5035544;28;20245;-55
2023/04/22 00:39:52;;;;;;;2.47;2.27;;;18.10;58.60;18.80;100037.00;;;;5037047;28;20179;-55
2023/04/22 00:42:18;;;;;;;2.20;2.10;;;18.00;58.60;18.80;100038.00;;;;5037278;28;20186;-55
2023/04/22 00:44:45;;;;;;;2.33;2.10;;;18.00;58.60;18.80;100032.00;;;;5031645;28;20210;-54
2023/04/22 00:47:11;;;;;;;2.27;2.10;;;18.00;58.60;18.80;100033.00;;;;5029783;28;20196;-55
2023/04/22 00:49:37;;;;;;;2.20;2.10;;;18.00;58.60;18.80;100022.00;;;;5030847;28;20254;-55
2023/04/22 00:52:03;;;;;;;2.47;2.27;;;18.00;58.70;18.80;100034.00;;;;5029727;28;20174;-55
2023/04/22 00:54:28;;;;;;;2.37;2.20;;;18.00;58.60;18.70;100032.00;;;;5030616;28;20202;-55
2023/04/22 00:56:55;;;;;;;2.30;2.10;;;18.00;59.40;18.70;100027.00;;;;5029734;28;20284;-55
2023/04/22 00:59:21;;;;;;;2.10;2.00;;;18.00;58.70;18.70;100031.00;;;;5031340;28;20168;-54
2023/04/22 01:01:47;;;;;;;2.20;2.10;;;17.90;58.60;18.70;100023.00;;;;5029574;28;20530;-55
2023/04/22 01:04:14;;;;;;;2.80;2.10;;;18.00;58.80;18.70;100032.00;;;;5030499;28;20210;-55
2023/04/22 01:06:40;;;;;;;2.40;2.20;;;17.90;58.70;18.70;100024.00;;;;5029422;28;20192;-54
2023/04/22 01:09:06;;;;;;;2.60;2.40;;;18.00;58.80;18.70;100031.00;;;;5029954;28;20253;-55
2023/04/22 01:11:33;;;;;;;3.47;2.20;;;17.90;58.70;18.60;100025.00;;;;5029470;28;20178;-54
2023/04/22 01:13:59;;;;;;;2.47;2.27;;;17.90;58.80;18.60;100038.00;;;;5029049;28;20546;-55
2023/04/22 01:16:27;;;;;;;2.30;2.10;;;17.90;58.80;18.60;100026.00;;;;5012931;28;20181;-55
2023/04/22 01:18:53;;;;;;;2.50;2.30;;;17.90;58.80;18.60;100031.00;;;;5029651;28;20197;-54
2023/04/22 01:21:19;;;;;;;2.30;2.10;;;17.90;58.80;18.50;100031.00;;;;5029202;28;20537;-56
2023/04/22 01:23:45;;;;;;;2.33;2.13;;;17.80;58.90;18.50;100028.00;;;;5030466;28;20198;-56
2023/04/22 01:26:11;;;;;;;2.20;2.03;;;17.80;58.90;18.50;100029.00;;;;5030123;28;20187;-56
2023/04/22 01:28:36;;;;;;;2.63;2.03;;;17.80;58.90;18.50;100023.00;;;;5029129;28;20263;-56
2023/04/22 01:31:02;;;;;;;2.57;2.00;;;17.80;58.80;18.60;100032.00;;;;5029260;28;20189;-55
2023/04/22 01:33:28;;;;;;;2.10;2.00;;;17.80;58.90;18.50;100030.00;;;;5030214;28;20181;-55
2023/04/22 01:35:54;;;;;;;2.10;2.00;;;17.80;58.90;18.50;100020.00;;;;5030232;28;20161;-55
2023/04/22 01:38:20;;;;;;;2.30;2.10;;;17.80;59.00;18.50;100024.00;;;;5029923;28;20193;-55
2023/04/22 01:40:45;;;;;;;2.93;2.20;;;17.70;59.00;18.50;100027.00;;;;5030138;28;20189;-55
2023/04/22 01:43:11;;;;;;;1.90;1.80;;;17.70;59.00;18.50;100024.00;;;;5030215;28;20177;-55
2023/04/22 01:45:37;;;;;;;2.23;2.00;;;17.70;59.00;18.50;100031.00;;;;5029855;28;20284;-54
2023/04/22 01:48:03;;;;;;;2.63;2.00;;;17.70;59.10;18.40;100025.00;;;;5030298;28;20191;-55
2023/04/22 01:50:29;;;;;;;2.13;2.00;;;17.70;59.00;18.40;100035.00;;;;5012351;28;20179;-56
2023/04/22 01:52:55;;;;;;;3.10;1.90;;;17.70;59.10;18.40;100028.00;;;;5030097;28;20193;-56
2023/04/22 01:55:21;;;;;;;2.17;1.97;;;17.70;59.00;18.40;100029.00;;;;5028760;28;20632;-56
2023/04/22 01:57:46;;;;;;;2.20;2.10;;;17.70;59.10;18.40;100028.00;;;;5039313;28;20196;-55
2023/04/22 02:00:12;;;;;;;2.30;2.10;;;17.60;59.00;18.30;100018.00;;;;5042360;28;20179;-56
2023/04/22 02:02:38;;;;;;;2.10;2.00;;;17.70;59.00;18.40;100013.00;;;;5031624;28;20181;-55
2023/04/22 02:05:06;;;;;;;2.40;2.20;;;17.60;59.00;18.30;100029.00;;;;5031768;28;20250;-55
2023/04/22 02:07:31;;;;;;;2.40;2.20;;;17.60;59.00;18.30;100025.00;;;;5031093;28;20195;-56
2023/04/22 02:09:57;;;;;;;2.10;2.00;;;17.60;59.10;18.30;100022.00;;;;5032161;28;20196;-55
2023/04/22 02:12:23;;;;;;;2.20;2.00;;;17.60;59.00;18.30;100015.00;;;;5037825;28;20195;-56
2023/04/22 02:14:49;;;;;;;2.73;2.07;;;17.60;59.10;18.30;100016.00;;;;5037505;28;20823;-55
2023/04/22 02:17:16;;;;;;;2.07;1.83;;;17.60;59.20;18.30;100015.00;;;;5029966;28;20234;-55
2023/04/22 02:19:42;;;;;;;2.17;2.07;;;17.60;59.10;18.30;100022.00;;;;5030073;28;20191;-56
2023/04/22 02:22:08;;;;;;;2.00;1.90;;;17.60;59.10;18.30;100008.00;;;;5027406;28;20175;-55
2023/04/22 02:24:34;;;;;;;2.20;2.10;;;17.50;59.20;18.20;100008.00;;;;5028270;28;20305;-54
2023/04/22 02:27:00;;;;;;;2.10;2.00;;;17.50;59.30;18.20;100008.00;;;;5029403;28;20293;-56
2023/04/22 02:29:26;;;;;;;1.70;1.60;;;17.50;59.40;18.20;100001.00;;;;5029535;28;20175;-54
2023/04/22 02:31:51;;;;;;;2.20;2.10;;;17.50;59.30;18.20;99997.00;;;;5029521;28;20179;-54
2023/04/22 02:34:17;;;;;;;1.90;1.80;;;17.50;59.40;18.20;100000.00;;;;5028832;28;20215;-54
2023/04/22 02:36:43;;;;;;;1.83;1.73;;;17.40;59.40;18.20;99997.00;;;;5029092;28;20259;-54
2023/04/22 02:39:08;;;;;;;1.80;1.70;;;17.40;59.50;18.20;99988.00;;;;5029409;28;20179;-54
2023/04/22 02:41:34;;;;;;;1.90;1.80;;;17.40;59.50;18.20;99991.00;;;;5035741;28;20171;-54
2023/04/22 02:44:00;;;;;;;2.30;2.10;;;17.30;60.10;18.10;99996.00;;;;5027278;28;20200;-53
2023/04/22 02:46:26;;;;;;;2.00;1.90;;;17.40;59.50;18.10;99994.00;;;;5024658;28;20187;-54
2023/04/22 02:48:51;;;;;;;2.00;1.90;;;17.40;59.50;18.10;100002.00;;;;5027791;28;20756;-55
2023/04/22 02:51:17;;;;;;;2.20;2.00;;;17.40;59.30;18.10;100016.00;;;;5028890;28;20185;-54
2023/04/22 02:53:43;;;;;;;1.90;1.80;;;17.30;59.30;18.10;100002.00;;;;5028514;28;20182;-54
2023/04/22 02:56:09;;;;;;;2.00;1.90;;;17.40;59.40;18.10;99995.00;;;;5027382;28;20211;-54
2023/04/22 02:58:34;;;;;;;1.93;1.80;;;17.40;59.30;18.10;99997.00;;;;5029002;28;20193;-54
2023/04/22 03:01:00;;;;;;;1.90;1.80;;;17.40;59.30;18.10;99996.00;;;;5029029;28;20170;-56
2023/04/22 03:03:26;;;;;;;2.10;2.00;;;17.30;59.30;18.10;99983.00;;;;5028699;28;20201;-55
2023/04/22 03:05:51;;;;;;;2.10;2.00;;;17.40;59.40;18.10;99985.00;;;;5028602;28;20263;-53
2023/04/22 03:08:18;;;;;;;2.00;1.90;;;17.30;59.40;18.10;99987.00;;;;5027498;28;20203;-53
2023/04/22 03:10:44;;;;;;;2.03;1.93;;;17.40;59.60;18.10;99984.00;;;;5028744;28;20650;-53
2023/04/22 03:13:11;;;;;;;2.00;1.90;;;17.30;59.50;18.10;99977.00;;;;5028530;28;20177;-54
2023/04/22 03:15:39;;;;;;;1.90;1.80;;;17.30;59.50;18.10;99972.00;;;;5028645;28;20173;-53
2023/04/22 03:18:05;;;;;;;2.07;1.97;;;17.30;59.50;18.10;99977.00;;;;5028524;28;20280;-53
2023/04/22 03:20:31;;;;;;;2.00;1.90;;;17.30;59.50;18.10;99971.00;;;;5028961;28;20666;-54
2023/04/22 03:22:57;;;;;;;1.83;1.73;;;17.30;59.40;18.10;99965.00;;;;5028394;28;20204;-55
2023/04/22 03:25:22;;;;;;;2.07;1.97;;;17.30;59.50;18.00;99971.00;;;;5028150;28;20202;-53
2023/04/22 03:27:48;;;;;;;1.90;1.80;;;17.30;59.50;18.00;99964.00;;;;5028431;28;20563;-55
2023/04/22 03:30:14;;;;;;;2.07;1.97;;;17.20;59.40;18.00;99968.00;;;;5028583;28;20172;-53
2023/04/22 03:32:40;;;;;;;2.40;1.93;;;17.30;59.60;18.00;99974.00;;;;5028207;28;20252;-54
2023/04/22 03:35:06;;;;;;;2.20;2.00;;;17.30;59.70;18.10;99962.00;;;;5019401;28;20186;-54
2023/04/22 03:37:31;;;;;;;2.33;1.87;;;17.30;59.70;18.00;99960.00;;;;5024945;28;20200;-53
2023/04/22 03:39:57;;;;;;;2.17;1.87;;;17.30;59.70;18.10;99963.00;;;;5028209;28;20200;-56
2023/04/22 03:42:23;;;;;;;2.50;2.23;;;17.30;59.60;18.10;99963.00;;;;5027604;28;20230;-54
2023/04/22 03:44:49;;;;;;;2.20;2.00;;;17.30;59.90;18.10;99954.00;;;;5026497;28;20197;-53
2023/04/22 03:47:14;;;;;;;2.17;1.97;;;17.30;59.70;18.00;99960.00;;;;5035257;28;20858;-53
2023/04/22 03:49:40;;;;;;;2.27;1.93;;;17.30;59.90;18.10;99957.00;;;;5026421;28;20207;-53
2023/04/22 03:52:06;;;;;;;2.07;1.87;;;17.20;60.20;18.00;99961.00;;;;5028234;28;20634;-53
2023/04/22 03:54:31;;;;;;;3.13;2.00;;;17.20;60.10;18.00;99950.00;;;;5025914;28;20240;-56
2023/04/22 03:56:57;;;;;;;2.00;1.90;;;17.20;59.40;18.00;99957.00;;;;5032824;28;20201;-55
2023/04/22 03:59:23;;;;;;;3.67;2.00;;;17.20;59.50;18.00;99958.00;;;;5041696;28;20180;-53
2023/04/22 04:01:50;;;;;;;2.30;2.10;;;17.20;59.50;18.00;99942.00;;;;5030257;28;20179;-54
2023/04/22 04:04:16;;;;;;;2.50;1.93;;;17.20;59.50;18.00;99948.00;;;;5028526;28;20292;-54
2023/04/22 04:06:41;;;;;;;2.27;2.07;;;17.20;59.50;17.90;99939.00;;;;5028608;28;20672;-54
2023/04/22 04:09:07;;;;;;;2.20;2.00;;;17.20;59.50;17.90;99945.00;;;;5030494;28;20184;-55
2023/04/22 04:11:33;;;;;;;2.00;1.90;;;17.20;59.40;17.90;99946.00;;;;5037982;28;20175;-54
2023/04/22 04:13:58;;;;;;;2.20;2.00;;;17.10;59.30;17.90;99944.00;;;;5033889;28;20178;-55
2023/04/22 04:16:24;;;;;;;2.07;1.97;;;17.20;59.40;17.90;99938.00;;;;5027273;28;20647;-54
2023/04/22 04:18:50;;;;;;;2.40;2.00;;;17.20;59.40;17.90;99944.00;;;;5027388;28;20213;-54
2023/04/22 04:21:16;;;;;;;2.27;2.07;;;17.10;59.30;17.90;99937.00;;;;5023897;28;20193;-56
2023/04/22 04:23:42;;;;;;;2.83;2.00;;;17.10;59.20;17.90;99928.00;;;;5001285;28;20189;-55
2023/04/22 04:26:07;;;;;;;2.77;2.03;;;17.10;59.30;17.90;99928.00;;;;5015691;28;20295;-54
2023/04/22 04:28:34;;;;;;;2.20;2.10;;;17.10;59.30;17.90;99923.00;;;;5025203;28;20211;-54
2023/04/22 04:31:04;;;;;;;3.40;2.20;;;17.10;59.30;17.90;99912.00;;;;5027814;28;20212;-54
2023/04/22 04:33:31;;;;;;;2.03;1.93;;;17.10;59.30;17.90;99922.00;;;;5028158;28;20188;-54
2023/04/22 04:35:57;;;;;;;3.17;2.20;;;17.10;59.30;17.80;99907.00;;;;5028439;28;20167;-54
2023/04/22 04:38:25;;;;;;;4.70;2.30;;;17.10;59.30;17.90;99909.00;;;;5029205;28;20210;-55
2023/04/22 04:40:50;;;;;;;2.43;2.00;;;17.10;59.30;17.90;99911.00;;;;5011820;28;20229;-54
2023/04/22 04:43:17;;;;;;;2.80;2.10;;;17.00;59.20;17.90;99912.00;;;;5029789;28;20171;-53
2023/04/22 04:45:45;;;;;;;2.33;2.13;;;17.10;59.30;17.80;99852.00;;;;5031282;28;20271;-55
2023/04/22 04:48:15;;;;;;;3.30;2.07;;;17.00;59.20;17.80;99917.00;;;;5030970;28;20199;-54
2023/04/22 04:50:42;;;;;;;2.63;2.23;;;17.00;59.20;17.80;99907.00;;;;5032367;28;20187;-54
2023/04/22 04:53:08;;;;;;;3.83;2.10;;;17.00;59.20;17.80;99909.00;;;;5032094;28;20178;-54
2023/04/22 04:55:34;;;;;;;2.37;2.20;;;17.00;59.40;17.80;99919.00;;;;5031659;28;20210;-56
2023/04/22 04:57:59;;;;;;;2.30;2.10;;;17.00;59.40;17.80;99922.00;;;;5031757;28;20732;-54
2023/04/22 05:00:25;;;;;;;2.20;2.00;;;17.00;59.40;17.80;99908.00;;;;5031985;28;20258;-54
2023/04/22 05:02:51;;;;;;;2.77;2.07;;;17.00;59.40;17.80;99915.00;;;;5029367;28;20767;-55
2023/04/22 05:05:17;;;;;;;2.93;2.20;;;17.00;59.40;17.80;99907.00;;;;5031398;28;20205;-55
2023/04/22 05:07:42;;;;;;;3.30;2.20;;;17.00;59.40;17.80;99908.00;;;;5031532;28;20204;-54
2023/04/22 05:10:09;;;;;;;2.53;1.97;;;17.00;59.60;17.80;99908.00;;;;5031913;28;20170;-54
2023/04/22 05:12:34;;;;;;;2.20;2.10;;;17.00;59.60;17.80;99894.00;;;;5031307;28;20231;-55
2023/04/22 05:15:00;;;;;;;2.43;2.20;;;17.00;59.60;17.80;99896.00;;;;5031862;28;20658;-56
2023/04/22 05:17:26;;;;;;;2.00;1.90;;;17.00;59.60;17.80;99898.00;;;;5029134;28;20614;-53
2023/04/22 05:19:52;;;;;;;2.03;1.83;;;17.00;59.60;17.80;99899.00;;;;5031962;28;20179;-54
2023/04/22 05:22:18;;;;;;;4.10;2.40;;;16.90;59.60;17.80;99912.00;;;;5030602;28;20346;-55
2023/04/22 05:24:43;;;;;;;2.17;2.00;;;17.00;59.70;17.80;99916.00;;;;5030722;28;20199;-55
2023/04/22 05:27:09;;;;;;;2.13;2.03;;;16.90;59.70;17.80;99910.00;;;;5030778;28;20207;-54
2023/04/22 05:29:35;;;;;;;2.60;2.00;;;16.90;59.70;17.80;99917.00;;;;5031562;28;20647;-54
2023/04/22 05:32:01;;;;;;;2.50;2.10;;;16.90;59.70;17.80;99920.00;;;;5031027;28;20607;-56
2023/04/22 05:34:26;;;;;;;2.53;2.10;;;16.90;59.70;17.80;99912.00;;;;5030846;28;20659;-54
2023/04/22 05:36:52;;;;;;;2.23;2.10;;;16.90;59.70;17.70;99911.00;;;;5017882;28;21739;-52
2023/04/22 05:39:19;;;;;;;1.90;1.80;;;16.90;59.70;17.70;99931.00;;;;5015902;28;20313;-54
2023/04/22 05:41:44;;;;;;;2.37;2.17;;;16.90;59.70;17.70;99910.00;;;;5021997;28;20185;-55
2023/04/22 05:44:10;;;;;;;1.97;1.80;;;16.90;59.70;17.70;99907.00;;;;5030800;28;20203;-55
2023/04/22 05:46:36;;;;;;;2.43;2.10;;;16.90;59.70;17.70;99911.00;;;;5030487;28;20179;-56
2023/04/22 05:49:02;;;;;;;2.07;1.80;;;16.90;59.70;17.70;99915.00;;;;5030978;28;20175;-56
2023/04/22 05:51:27;;;;;;;2.23;1.90;;;16.90;59.70;17.70;99911.00;;;;5031309;28;20187;-56
2023/04/22 05:53:53;;;;;;;2.40;2.20;;;16.90;59.70;17.70;99919.00;;;;5029585;28;20168;-58
2023/04/22 05:56:20;;;;;;;2.03;1.93;;;16.90;59.70;17.70;99918.00;;;;5034935;28;20254;-55
2023/04/22 05:58:45;;;;;;;2.53;1.80;;;16.80;59.60;17.70;99911.00;;;;5036634;28;20224;-56
2023/04/22 06:01:12;;;;;;;2.30;2.00;;;16.90;59.80;17.70;99907.00;;;;5032120;28;20167;-54
2023/04/22 06:03:37;;;;;;;2.03;1.93;;;16.90;59.80;17.70;99922.00;;;;5032577;28;20603;-56
2023/04/22 06:06:03;;;;;;;2.13;1.93;;;16.90;59.70;17.70;99916.00;;;;5031636;28;20244;-54
2023/04/22 06:08:30;;;;;;;2.00;1.90;;;16.80;59.70;17.70;99921.00;;;;5031415;28;20214;-54
2023/04/22 06:10:56;;;;;;;2.07;1.87;;;16.90;59.80;17.70;99925.00;;;;5029008;28;20178;-54
2023/04/22 06:13:21;;;;;;;2.00;1.90;;;16.80;59.70;17.70;99924.00;;;;5034462;28;20217;-54
2023/04/22 06:15:47;;;;;;;1.90;1.80;;;16.80;59.80;17.70;99925.00;;;;5029857;28;20288;-54
2023/04/22 06:18:13;;;;;;;1.90;1.80;;;16.80;59.80;17.60;99927.00;;;;5030494;28;20202;-56
2023/04/22 06:20:38;;;;;;;1.90;1.80;;;16.80;59.80;17.60;99916.00;;;;5030027;28;20722;-54
2023/04/22 06:23:04;;;;;;;2.67;1.93;;;16.80;59.80;17.60;99908.00;;;;5030763;28;20184;-54
2023/04/22 06:25:31;;;;;;;1.83;1.73;;;16.80;59.80;17.60;99906.00;;;;5029979;28;20212;-54
2023/04/22 06:27:58;;;;;;;1.93;1.83;;;16.80;59.80;17.60;99911.00;;;;5030866;28;20195;-56
2023/04/22 06:30:24;;;;;;;2.00;1.90;;;16.80;59.80;17.60;99908.00;;;;5030646;28;20547;-56
2023/04/22 06:32:51;;;;;;;1.97;1.87;;;16.80;59.80;17.40;99911.00;;;;5029952;28;20248;-56
2023/04/22 06:35:17;;;;;;;2.03;1.93;;;16.80;59.80;17.60;99909.00;;;;5028967;28;20206;-56
2023/04/22 06:37:43;;;;;;;2.00;1.80;;;16.80;60.00;17.60;99912.00;;;;5029720;28;20212;-56
2023/04/22 06:40:09;;;;;;;2.87;1.90;;;16.80;60.10;17.60;99911.00;;;;5029962;28;20179;-56
2023/04/22 06:42:35;;;;;;;2.13;2.00;;;16.80;60.10;17.60;99907.00;;;;5029963;28;20180;-54
2023/04/22 06:45:03;;;;;;;2.20;2.00;;;16.80;60.10;17.60;99910.00;;;;5029616;28;20702;-56
2023/04/22 06:47:28;;;;;;;1.80;1.70;;;16.80;60.10;17.60;99912.00;;;;5029677;28;20203;-55
2023/04/22 06:49:54;;;;;;;2.07;1.87;;;16.80;60.10;17.60;99917.00;;;;5026743;28;20773;-55
2023/04/22 06:52:20;;;;;;;2.30;2.10;;;16.80;60.00;17.60;99914.00;;;;5013438;28;20635;-55
2023/04/22 06:54:46;;;;;;;2.07;1.97;;;16.80;60.00;17.60;99898.00;;;;5027305;28;20496;-55
2023/04/22 06:57:12;;;;;;;1.80;1.70;;;16.80;60.10;17.60;99903.00;;;;5028257;28;20208;-55
2023/04/22 06:59:37;;;;;;;3.10;1.90;;;16.80;60.10;17.60;99895.00;;;;5028619;28;20188;-54
2023/04/22 07:02:04;;;;;;;1.77;1.67;;;16.80;60.20;17.60;99901.00;;;;5028852;28;20190;-55
2023/04/22 07:04:30;;;;;;;2.13;1.93;;;16.80;60.30;17.60;99891.00;;;;5028604;28;20203;-56
2023/04/22 07:06:58;;;;;;;2.10;1.90;;;16.80;60.20;17.60;99912.00;;;;5022142;28;20200;-55
2023/04/22 07:09:23;;;;;;;2.00;1.90;;;16.80;60.30;17.60;99906.00;;;;4991854;28;20172;-55
2023/04/22 07:11:49;;;;;;;1.80;1.70;;;16.70;60.20;17.60;99900.00;;;;5021148;28;20178;-55
2023/04/22 07:14:15;;;;;;;2.00;1.80;;;16.80;60.30;17.60;99910.00;;;;5029312;28;20245;-54
2023/04/22 07:16:41;;;;;;;1.97;1.87;;;16.80;60.50;17.60;99904.00;;;;5028256;28;20237;-54
2023/04/22 07:19:06;;;;;;;2.00;1.80;;;16.80;60.50;17.60;99898.00;;;;5029514;28;20316;-54
2023/04/22 07:21:32;;;;;;;1.90;1.80;;;16.70;60.50;17.60;99885.00;;;;5029762;28;20230;-55
2023/04/22 07:23:58;;;;;;;1.80;1.70;;;16.70;60.40;17.60;99887.00;;;;5026986;28;20206;-57
2023/04/22 07:26:24;;;;;;;2.00;1.80;;;16.70;60.50;17.60;99898.00;;;;5029485;28;20654;-54
2023/04/22 07:28:50;;;;;;;1.87;1.77;;;16.70;60.50;17.60;99885.00;;;;5029722;28;20283;-55
2023/04/22 07:31:16;;;;;;;2.13;1.80;;;16.70;60.50;17.60;99897.00;;;;5029709;28;20238;-55
2023/04/22 07:33:41;;;;;;;1.97;1.87;;;16.70;60.60;17.60;99895.00;;;;5029412;28;20180;-55
2023/04/22 07:36:07;;;;;;;1.80;1.70;;;16.70;60.60;17.60;99889.00;;;;5027587;28;20221;-55
2023/04/22 07:38:33;;;;;;;1.80;1.70;;;16.70;60.70;17.60;99890.00;;;;5019992;28;20245;-57
2023/04/22 07:40:58;;;;;;;2.10;2.00;;;16.70;60.70;17.60;99889.00;;;;5028206;28;20175;-55
2023/04/22 07:43:24;;;;;;;1.90;1.80;;;16.70;60.80;17.60;99890.00;;;;5029387;28;20167;-54
2023/04/22 07:45:50;;;;;;;2.00;1.90;;;16.70;60.80;17.60;99879.00;;;;5029446;28;20205;-55
2023/04/22 07:48:16;;;;;;;1.80;1.70;;;16.70;60.80;17.60;99890.00;;;;5028880;28;20281;-55
2023/04/22 07:50:41;;;;;;;1.90;1.80;;;16.70;60.90;17.60;99887.00;;;;5029147;28;20250;-55
2023/04/22 07:53:09;;;;;;;1.83;1.73;;;16.70;61.10;17.60;99880.00;;;;5033694;28;20194;-55
2023/04/22 07:55:35;;;;;;;2.00;1.80;;;16.70;61.10;17.60;99878.00;;;;5036140;28;20182;-55
2023/04/22 07:58:05;;;;;;;2.10;2.00;;;16.70;61.10;17.60;99867.00;;;;5039421;28;20190;-55
2023/04/22 08:00:34;;;;;;;1.90;1.80;;;16.70;61.20;17.60;99880.00;;;;5046918;28;20195;-54
2023/04/22 08:03:00;;;;;;;1.80;1.70;;;16.70;61.30;17.60;99880.00;;;;5029910;28;20173;-56
2023/04/22 08:05:26;;;;;;;1.90;1.70;;;16.70;61.40;17.60;99882.00;;;;5029207;28;20201;-56
2023/04/22 08:07:51;;;;;;;1.90;1.80;;;16.70;61.50;17.60;99873.00;;;;5028257;28;20271;-54
2023/04/22 08:10:17;;;;;;;1.90;1.80;;;16.70;61.60;17.60;99870.00;;;;5029566;28;20175;-54
2023/04/22 08:12:43;;;;;;;2.67;1.70;;;16.70;61.70;17.60;99879.00;;;;5033847;28;20186;-54
2023/04/22 08:15:09;;;;;;;2.00;1.90;;;16.80;62.10;17.60;99862.00;;;;5038106;28;20179;-57
2023/04/22 08:17:35;;;;;;;2.20;2.00;;;16.80;62.10;17.60;99864.00;;;;5029400;28;20210;-54
2023/04/22 08:20:00;;;;;;;2.33;2.00;;;16.70;62.10;17.60;99859.00;;;;5035473;28;20171;-56
2023/04/22 08:22:26;;;;;;;3.30;2.10;;;16.80;62.30;17.60;99850.00;;;;5046232;28;20249;-56
2023/04/22 08:24:52;;;;;;;3.77;2.30;;;16.70;62.10;17.60;99858.00;;;;5037806;28;20222;-56
2023/04/22 08:27:20;;;;;;;3.10;2.10;;;16.70;62.30;17.70;99862.00;;;;5033101;28;20209;-56
2023/04/22 08:29:46;;;;;;;2.20;2.00;;;16.70;62.30;17.70;99861.00;;;;5031973;28;20183;-56
2023/04/22 08:32:11;;;;;;;2.10;1.80;;;16.80;62.50;17.70;99852.00;;;;5033466;28;20233;-56
2023/04/22 08:34:37;;;;;;;3.53;2.03;;;16.80;62.50;17.70;99841.00;;;;5031239;28;20527;-54
2023/04/22 08:37:03;;;;;;;2.10;2.00;;;16.80;62.50;17.70;99847.00;;;;5033030;28;20202;-56
2023/04/22 08:39:28;;;;;;;3.53;2.17;;;16.80;62.50;17.70;99851.00;;;;5030336;28;20687;-55
2023/04/22 08:41:55;;;;;;;2.20;2.00;;;16.80;62.60;17.70;99839.00;;;;5032755;28;20198;-54
2023/04/22 08:44:21;;;;;;;2.27;2.00;;;16.80;62.70;17.70;99846.00;;;;5031249;28;20199;-55
2023/04/22 08:46:47;;;;;;;2.10;1.90;;;16.80;62.70;17.70;99848.00;;;;5031339;28;20176;-55
2023/04/22 08:49:17;;;;;;;2.30;2.10;;;16.80;62.90;17.70;99835.00;;;;5031111;28;20255;-54
2023/04/22 08:51:43;;;;;;;2.00;1.90;;;16.80;62.90;17.70;99817.00;;;;5031818;28;20190;-56
2023/04/22 08:54:10;;;;;;;2.20;1.70;;;16.80;62.90;17.70;99835.00;;;;5032412;28;20186;-54
2023/04/22 08:56:37;;;;;;;1.90;1.80;;;16.80;62.90;17.80;99828.00;;;;5032220;28;20273;-56
2023/04/22 08:59:03;;;;;;;1.97;1.87;;;16.80;63.10;17.80;99832.00;;;;5030844;28;20171;-54
2023/04/22 09:01:30;;;;;;;1.87;1.77;;;16.90;63.20;17.80;99825.00;;;;5024522;28;20183;-56
2023/04/22 09:03:59;;;;;;;2.60;1.70;;;16.80;63.10;17.80;99796.00;;;;5027015;28;20202;-54
2023/04/22 09:06:26;;;;;;;3.03;1.90;;;16.90;63.40;17.80;99807.00;;;;4998242;28;20678;-54
2023/04/22 09:08:52;;;;;;;2.20;1.90;;;16.80;63.30;17.80;99819.00;;;;5031702;28;20191;-55
2023/04/22 09:11:17;;;;;;;3.83;2.20;;;16.90;63.60;17.80;99817.00;;;;5030812;28;20176;-55
2023/04/22 09:13:44;;;;;;;3.77;2.10;;;16.90;63.90;17.80;99743.00;;;;5031152;28;20190;-54
2023/04/22 09:16:09;;;;;;;2.10;1.90;;;16.90;63.90;17.80;99806.00;;;;5029954;28;20654;-54
2023/04/22 09:18:40;;;;;;;4.37;2.20;;;16.80;64.00;17.80;99812.00;;;;5031873;28;20255;-54
2023/04/22 09:21:06;;;;;;;2.30;2.10;;;16.90;64.10;17.80;99803.00;;;;5031822;28;20178;-54
2023/04/22 09:23:32;;;;;;;3.03;2.00;;;16.90;64.40;17.80;99807.00;;;;5029953;28;20184;-54
2023/04/22 09:25:58;;;;;;;4.27;2.40;;;16.90;64.70;17.80;99813.00;;;;5031986;28;20206;-55
2023/04/22 09:28:24;;;;;;;3.13;2.27;;;16.90;65.10;17.90;99800.00;;;;5031230;28;20199;-56
2023/04/22 09:30:49;;;;;;;2.77;2.10;;;17.00;66.20;17.90;99810.00;;;;5031166;28;20168;-54
2023/04/22 09:33:16;;;;;;;6.33;2.80;;;17.00;66.20;17.90;99807.00;;;;5029614;28;20171;-57
2023/04/22 09:35:42;;;;;;;6.07;2.90;;;17.00;66.70;17.90;99809.00;;;;5030944;28;20209;-54
2023/04/22 09:38:10;;;;;;;6.70;2.50;;;17.00;67.00;17.90;99798.00;;;;5031326;28;20205;-55
2023/04/22 09:40:37;;;;;;;4.33;2.40;;;17.00;67.20;17.90;99794.00;;;;5030738;28;20190;-55
2023/04/22 09:43:05;;;;;;;2.60;2.30;;;17.00;67.60;18.00;99800.00;;;;5029952;28;20182;-55
2023/04/22 09:45:34;;;;;;;3.40;2.40;;;17.10;67.80;18.00;99807.00;;;;5030598;28;20768;-55
2023/04/22 09:48:11;;;;;;;3.87;2.30;;;17.10;67.90;18.00;99807.00;;;;5030073;28;20199;-54
2023/04/22 09:50:43;;;;;;;5.33;2.50;;;17.10;67.90;18.00;99798.00;;;;5030498;28;20650;-55
2023/04/22 09:53:12;;;;;;;3.80;2.33;;;17.10;67.90;17.80;99801.00;;;;5027681;28;20284;-55
2023/04/22 09:55:40;;;;;;;3.17;2.43;;;17.10;67.80;18.10;99799.00;;;;5034198;28;20188;-56
2023/04/22 09:58:11;;;;;;;3.67;2.60;;;17.20;68.10;18.10;99799.00;;;;5029795;28;20223;-55
2023/04/22 10:00:41;;;;;;;6.53;2.30;;;17.20;67.90;18.10;99800.00;;;;5023116;28;20261;-54
2023/04/22 10:03:07;;;;;;;6.97;2.50;;;17.20;67.50;18.10;99788.00;;;;5043965;28;20182;-55
2023/04/22 10:05:36;;;;;;;3.83;2.40;;;17.20;67.30;18.20;99786.00;;;;5028538;28;20200;-55
2023/04/22 10:08:04;;;;;;;6.73;2.50;;;17.20;67.10;18.20;99787.00;;;;5031114;28;20196;-54
2023/04/22 10:10:30;;;;;;;7.30;2.40;;;17.30;67.20;18.20;99797.00;;;;5030565;28;20173;-55
2023/04/22 10:12:56;;;;;;;5.37;2.33;;;17.30;67.00;18.20;99792.00;;;;5030366;28;20169;-55
2023/04/22 10:15:22;;;;;;;6.03;2.50;;;17.40;67.10;18.20;99791.00;;;;5032459;28;20256;-55
2023/04/22 10:17:48;;;;;;;5.23;2.40;;;17.30;66.80;18.20;99787.00;;;;5043595;28;20204;-54
2023/04/22 10:20:15;;;;;;;4.70;2.67;;;17.30;66.50;18.20;99797.00;;;;5018040;28;20258;-55
2023/04/22 10:22:41;;;;;;;6.97;2.40;;;17.40;66.70;18.30;99803.00;;;;5029997;28;20240;-55
2023/04/22 10:25:26;;;;;;;3.67;2.27;;;17.40;66.70;18.30;99798.00;;;;5029593;28;20203;-54
2023/04/22 10:28:05;;;;;;;2.43;2.10;;;17.40;67.40;18.30;99804.00;;;;5030349;28;20195;-54
2023/04/22 10:30:36;;;;;;;4.47;2.30;;;17.40;66.60;18.30;99802.00;;;;5027715;28;20171;-54
2023/04/22 10:33:20;;;;;;;4.30;2.63;;;17.40;66.60;18.30;99808.00;;;;5030874;28;20270;-55
2023/04/22 10:36:13;;;;;;;6.60;2.40;;;17.40;66.60;18.30;99809.00;;;;5030083;28;20242;-55
2023/04/22 10:38:54;;;;;;;4.73;2.20;;;17.40;66.60;18.40;99810.00;;;;5030059;28;20671;-54
2023/04/22 10:41:24;;;;;;;5.40;2.30;;;17.40;66.60;18.40;99806.00;;;;5030175;28;20180;-53
2023/04/22 10:43:59;;;;;;;4.70;2.20;;;17.50;66.70;18.40;99801.00;;;;5029862;28;20220;-54
2023/04/22 10:46:33;;;;;;;2.50;2.20;;;17.50;66.80;18.40;99807.00;;;;5030697;28;20262;-56
2023/04/22 10:49:06;;;;;;;2.30;2.10;;;17.50;66.70;18.40;99797.00;;;;5029298;28;20196;-54